Time;durP1;ratioP1;P1;durP2;ratioP2;P2;SDS_P1;SDS_P2;PMS_P1;PMS_P2;Temp;Humidity;BMP_temperature;BMP_pressure;BME280_temperature;BME280_humidity;BME280_pressure;Samples;Min_cycle;Max_cycle;Signal;HPM_P1;HPM_P2
2021/09/19 00:00:44;;;;;;;4.17;1.55;;;;;;;11.75;79.65;96751.34;1715987;82;25757;-95
2021/09/19 00:03:12;;;;;;;1.60;1.50;;;;;;;11.73;79.63;96747.18;1711612;83;26084;-89
2021/09/19 00:05:39;;;;;;;1.60;1.50;;;;;;;11.70;79.70;96749.84;1739173;81;25689;-94
2021/09/19 00:08:05;;;;;;;1.80;1.67;;;;;;;11.68;79.73;96752.48;1724888;82;25709;-94
2021/09/19 00:10:32;;;;;;;2.10;1.92;;;;;;;11.65;79.73;96750.24;1727923;81;26886;-89
2021/09/19 00:12:59;;;;;;;2.22;2.02;;;;;;;11.64;79.81;96749.95;1723640;81;25716;-94
2021/09/19 00:15:25;;;;;;;2.25;1.92;;;;;;;11.64;79.87;96748.06;1727819;81;28585;-91
2021/09/19 00:17:52;;;;;;;2.12;1.92;;;;;;;11.67;79.91;96746.78;1717192;83;25806;-92
2021/09/19 00:20:19;;;;;;;3.87;2.50;;;;;;;11.67;79.87;96742.20;1715470;82;25966;-91
2021/09/19 00:22:45;;;;;;;2.75;2.10;;;;;;;11.66;79.84;96739.73;1708659;82;26613;-90
2021/09/19 00:25:13;;;;;;;2.42;2.08;;;;;;;11.63;79.85;96739.66;1722914;81;25794;-94
2021/09/19 00:27:40;;;;;;;2.40;2.05;;;;;;;11.62;79.88;96750.17;1718543;81;28175;-92
2021/09/19 00:30:09;;;;;;;2.80;2.60;;;;;;;11.62;79.90;96752.88;1717806;81;25800;-93
2021/09/19 00:32:36;;;;;;;3.35;2.22;;;;;;;11.60;79.92;96750.93;1717117;82;25795;-93
2021/09/19 00:35:06;;;;;;;2.92;2.42;;;;;;;11.60;79.94;96755.52;1715224;82;26881;-91
2021/09/19 00:37:32;;;;;;;3.15;2.87;;;;;;;11.59;79.93;96754.72;1727317;82;26077;-96
2021/09/19 00:39:59;;;;;;;5.45;2.40;;;;;;;11.61;80.01;96755.81;1713578;81;27442;-92
2021/09/19 00:42:26;;;;;;;4.45;2.40;;;;;;;11.58;80.02;96757.13;1725838;81;25780;-93
2021/09/19 00:45:03;;;;;;;4.35;2.35;;;;;;;11.58;80.08;96755.77;1710314;82;25699;-91
2021/09/19 00:47:29;;;;;;;3.75;2.52;;;;;;;11.57;80.12;96758.17;1715927;81;26763;-95
2021/09/19 00:49:56;;;;;;;3.60;2.15;;;;;;;11.57;80.12;96753.30;1723565;81;25496;-90
2021/09/19 00:52:23;;;;;;;2.35;2.15;;;;;;;11.52;80.09;96748.05;1735739;82;27483;-91
2021/09/19 00:54:51;;;;;;;3.05;2.50;;;;;;;11.52;80.12;96749.94;1726292;81;25829;-91
2021/09/19 00:57:18;;;;;;;2.60;2.40;;;;;;;11.46;80.17;96750.35;1705812;83;25837;-91
2021/09/19 00:59:49;;;;;;;2.85;2.60;;;;;;;11.41;80.32;96750.73;1710687;81;25993;-94
2021/09/19 01:02:16;;;;;;;3.45;3.15;;;;;;;11.42;80.39;96750.51;1707110;83;25325;-90
2021/09/19 01:04:43;;;;;;;5.47;3.50;;;;;;;11.41;80.45;96747.52;1712027;81;27366;-93
2021/09/19 01:07:10;;;;;;;4.40;3.45;;;;;;;11.42;80.49;96747.81;1732929;81;26537;-95
2021/09/19 01:09:37;;;;;;;4.15;3.75;;;;;;;11.44;80.49;96746.23;1725774;81;26083;-91
2021/09/19 01:12:04;;;;;;;5.58;4.40;;;;;;;11.42;80.39;96744.28;1738951;81;26045;-94
2021/09/19 01:14:32;;;;;;;7.33;4.67;;;;;;;11.41;80.44;96748.04;1716769;82;25803;-94
2021/09/19 01:16:59;;;;;;;7.10;4.85;;;;;;;11.39;80.52;96741.52;1709045;83;28195;-91
2021/09/19 01:19:26;;;;;;;6.50;5.55;;;;;;;11.34;80.55;96748.16;1719142;81;25342;-91
2021/09/19 01:21:52;;;;;;;6.95;5.33;;;;;;;11.35;80.65;96748.42;1702945;82;25817;-91
2021/09/19 01:24:21;;;;;;;5.55;4.95;;;;;;;11.34;80.65;96750.86;1726588;81;26029;-91
2021/09/19 01:26:48;;;;;;;8.15;5.92;;;;;;;11.37;80.66;96749.55;1725766;82;25899;-93
2021/09/19 01:29:14;;;;;;;7.25;5.62;;;;;;;11.34;80.72;96752.73;1738932;81;27436;-92
2021/09/19 01:31:41;;;;;;;6.80;6.15;;;;;;;11.34;80.78;96748.16;1708923;81;25799;-92
2021/09/19 01:34:07;;;;;;;9.25;6.40;;;;;;;11.33;80.81;96747.86;1738477;81;25790;-91
2021/09/19 01:36:36;;;;;;;7.65;5.78;;;;;;;11.35;80.88;96740.88;1734585;81;26046;-92
2021/09/19 01:39:09;;;;;;;7.42;5.80;;;;;;;11.36;80.88;96746.02;1707301;82;26413;-90
2021/09/19 01:41:37;;;;;;;6.15;5.55;;;;;;;11.35;80.90;96747.63;1724361;81;27434;-92
2021/09/19 01:44:06;;;;;;;6.80;5.60;;;;;;;11.34;80.98;96750.03;1728543;81;25924;-91
2021/09/19 01:46:34;;;;;;;5.78;5.12;;;;;;;11.35;80.98;96757.88;1691850;82;25768;-91
2021/09/19 01:49:01;;;;;;;7.20;5.55;;;;;;;11.33;80.98;96758.66;1692142;83;25984;-92
2021/09/19 01:51:28;;;;;;;6.20;5.15;;;;;;;11.32;81.01;96754.84;1727307;82;25710;-90
2021/09/19 01:53:54;;;;;;;6.60;5.08;;;;;;;11.30;81.06;96761.83;1730740;81;27506;-92
2021/09/19 01:56:24;;;;;;;6.20;4.83;;;;;;;11.31;81.04;96764.00;1717208;82;25781;-92
2021/09/19 01:58:54;;;;;;;5.92;4.78;;;;;;;11.31;81.03;96770.75;1721101;82;25781;-89
2021/09/19 02:01:23;;;;;;;5.90;4.87;;;;;;;11.30;80.98;96765.05;1724076;81;26210;-93
2021/09/19 02:03:52;;;;;;;6.40;4.65;;;;;;;11.32;80.97;96765.65;1729292;82;25828;-90
2021/09/19 02:06:19;;;;;;;5.60;4.62;;;;;;;11.31;80.91;96770.75;1728757;82;27387;-91
2021/09/19 02:08:47;;;;;;;7.80;4.50;;;;;;;11.30;80.84;96773.98;1707856;82;25671;-92
2021/09/19 02:11:15;;;;;;;6.15;4.50;;;;;;;11.27;80.81;96773.08;1716249;82;26079;-90
2021/09/19 02:13:44;;;;;;;4.50;4.10;;;;;;;11.26;80.86;96769.26;1726846;82;25953;-92
2021/09/19 02:16:11;;;;;;;4.35;3.92;;;;;;;11.24;80.87;96774.06;1727314;82;25775;-95
2021/09/19 02:18:38;;;;;;;4.22;3.72;;;;;;;11.21;80.90;96777.25;1740384;81;27598;-90
2021/09/19 02:21:10;;;;;;;4.17;3.62;;;;;;;11.15;80.95;96777.10;1707622;81;25862;-89
2021/09/19 02:23:38;;;;;;;7.75;5.28;;;;;;;11.06;80.85;96774.44;1724955;82;25709;-88
2021/09/19 02:26:06;;;;;;;8.75;5.95;;;;;;;10.93;80.85;96780.02;1718196;81;26017;-92
2021/09/19 02:28:33;;;;;;;8.70;7.65;;;;;;;10.83;80.81;96789.20;1713435;82;25839;-94
2021/09/19 02:31:00;;;;;;;9.68;7.80;;;;;;;10.74;80.86;96794.62;1726699;82;27395;-90
2021/09/19 02:33:27;;;;;;;11.18;8.83;;;;;;;10.69;80.97;96787.19;1692499;83;25808;-91
2021/09/19 02:35:54;;;;;;;11.83;10.50;;;;;;;10.70;81.00;96788.84;1722385;82;25795;-92
2021/09/19 02:38:21;;;;;;;13.93;12.00;;;;;;;10.71;80.89;96788.31;1745086;81;25973;-90
2021/09/19 02:40:48;;;;;;;15.75;13.20;;;;;;;10.67;80.81;96787.94;1714941;81;26491;-89
2021/09/19 02:43:14;;;;;;;16.73;13.85;;;;;;;10.66;80.78;96790.86;1727645;81;27009;-92
2021/09/19 02:45:41;;;;;;;19.10;14.50;;;;;;;10.65;80.79;96795.95;1728736;81;25753;-90
2021/09/19 02:48:08;;;;;;;18.20;15.00;;;;;;;10.58;80.79;96791.17;1740077;81;25850;-91
2021/09/19 02:50:34;;;;;;;18.87;16.12;;;;;;;10.56;80.93;96796.80;1736017;82;26772;-91
2021/09/19 02:53:01;;;;;;;19.00;15.85;;;;;;;10.51;80.95;96797.16;1721405;81;26412;-90
2021/09/19 02:55:27;;;;;;;21.20;16.87;;;;;;;10.41;80.89;96802.56;1705995;83;26673;-89
2021/09/19 02:57:54;;;;;;;20.60;17.32;;;;;;;10.38;81.00;96798.98;1730680;81;25757;-90
2021/09/19 03:00:22;;;;;;;20.48;16.40;;;;;;;10.40;81.09;96796.86;1700895;81;25786;-91
2021/09/19 03:02:51;;;;;;;25.05;17.90;;;;;;;10.34;81.11;96795.60;1738795;81;26024;-88
2021/09/19 03:05:18;;;;;;;21.45;16.95;;;;;;;10.30;81.21;96794.39;1725564;82;26267;-88
2021/09/19 03:07:45;;;;;;;22.87;18.17;;;;;;;10.32;81.17;96799.87;1706222;82;27221;-89
2021/09/19 03:10:14;;;;;;;24.32;17.87;;;;;;;10.30;81.16;96800.61;1733306;81;26050;-86
2021/09/19 03:12:42;;;;;;;22.52;17.82;;;;;;;10.22;81.24;96801.44;1725576;81;25564;-89
2021/09/19 03:15:10;;;;;;;22.58;16.50;;;;;;;10.20;81.30;96804.88;1738244;81;25983;-91
2021/09/19 03:17:37;;;;;;;21.42;15.83;;;;;;;10.16;81.30;96796.38;1732820;81;25356;-90
2021/09/19 03:20:06;;;;;;;19.80;16.05;;;;;;;10.14;81.31;96799.02;1718826;82;27461;-89
2021/09/19 03:22:33;;;;;;;19.45;16.12;;;;;;;10.07;81.31;96797.19;1703141;81;25873;-94
2021/09/19 03:25:00;;;;;;;20.72;15.80;;;;;;;10.06;81.44;96799.59;1722850;81;25779;-89
2021/09/19 03:27:26;;;;;;;20.52;16.65;;;;;;;10.04;81.53;96799.50;1717528;81;27014;-88
2021/09/19 03:29:53;;;;;;;22.67;15.65;;;;;;;10.07;81.62;96801.23;1713534;81;25726;-91
2021/09/19 03:32:20;;;;;;;22.05;14.53;;;;;;;10.11;81.61;96805.67;1723662;82;27368;-87
2021/09/19 03:34:46;;;;;;;17.12;14.60;;;;;;;10.09;81.40;96809.11;1689870;83;25289;-87
2021/09/19 03:37:13;;;;;;;16.12;14.03;;;;;;;10.08;81.48;96805.59;1661839;84;25811;-88
2021/09/19 03:39:40;;;;;;;19.98;14.15;;;;;;;10.06;81.50;96805.50;1692406;84;25989;-87
2021/09/19 03:42:07;;;;;;;16.02;13.48;;;;;;;10.08;81.52;96806.11;1655986;84;25705;-87
2021/09/19 03:44:33;;;;;;;15.83;12.80;;;;;;;10.06;81.46;96808.20;1675436;83;27372;-87
2021/09/19 03:47:00;;;;;;;15.28;12.28;;;;;;;10.03;81.26;96814.86;1645486;85;25828;-87
2021/09/19 03:49:27;;;;;;;14.83;11.95;;;;;;;10.01;81.16;96822.89;1657902;85;25783;-90
2021/09/19 03:51:54;;;;;;;12.98;10.50;;;;;;;9.90;81.07;96810.93;1691233;84;25970;-85
2021/09/19 03:54:20;;;;;;;16.37;12.37;;;;;;;9.81;81.18;96812.78;1683875;84;25706;-85
2021/09/19 03:56:47;;;;;;;14.83;11.35;;;;;;;9.71;81.29;96818.16;1661016;84;27539;-85
2021/09/19 03:59:13;;;;;;;15.70;12.23;;;;;;;9.65;81.33;96812.31;1691098;84;25748;-83
2021/09/19 04:01:40;;;;;;;15.38;12.47;;;;;;;9.64;81.36;96812.02;1645646;85;25826;-85
2021/09/19 04:04:07;;;;;;;16.00;11.88;;;;;;;9.61;81.30;96812.97;1691023;84;25968;-84
2021/09/19 04:06:33;;;;;;;15.23;12.98;;;;;;;9.61;81.39;96813.79;1690785;83;25706;-85
2021/09/19 04:09:00;;;;;;;15.48;12.98;;;;;;;9.64;81.35;96816.57;1691919;83;27440;-86
2021/09/19 04:11:26;;;;;;;15.75;12.47;;;;;;;9.68;81.28;96819.11;1692237;84;25792;-86
2021/09/19 04:13:53;;;;;;;14.23;12.73;;;;;;;9.67;81.21;96819.63;1686961;83;25509;-90
2021/09/19 04:16:20;;;;;;;16.20;12.78;;;;;;;9.65;81.10;96816.88;1683867;83;25845;-87
2021/09/19 04:18:46;;;;;;;15.83;13.00;;;;;;;9.61;81.22;96816.48;1692482;84;25769;-91
2021/09/19 04:21:13;;;;;;;16.07;13.03;;;;;;;9.61;81.18;96821.05;1691966;83;28550;-84
2021/09/19 04:23:39;;;;;;;13.93;12.23;;;;;;;9.58;81.23;96826.34;1718815;81;25835;-84
2021/09/19 04:26:06;;;;;;;14.25;11.48;;;;;;;9.56;81.18;96827.08;1738329;81;25692;-87
2021/09/19 04:28:33;;;;;;;16.05;13.13;;;;;;;9.56;81.20;96822.21;1736285;81;26502;-86
2021/09/19 04:30:59;;;;;;;15.08;13.50;;;;;;;9.51;81.07;96825.58;1748638;81;25305;-86
2021/09/19 04:33:26;;;;;;;14.80;13.05;;;;;;;9.51;81.07;96835.02;1729090;81;27352;-89
2021/09/19 04:35:52;;;;;;;17.05;13.80;;;;;;;9.52;80.88;96831.28;1730088;81;25824;-85
2021/09/19 04:38:19;;;;;;;15.40;13.80;;;;;;;9.47;80.59;96837.83;1733318;81;25776;-82
2021/09/19 04:40:46;;;;;;;14.73;12.93;;;;;;;9.37;80.31;96845.56;1734267;81;26606;-93
2021/09/19 04:43:13;;;;;;;14.98;12.75;;;;;;;9.30;80.33;96855.02;1704575;82;25666;-90
2021/09/19 04:45:40;;;;;;;16.15;14.38;;;;;;;9.20;80.38;96856.54;1702323;82;27396;-89
2021/09/19 04:48:07;;;;;;;15.30;12.98;;;;;;;9.15;80.46;96856.38;1709111;82;26416;-82
2021/09/19 04:50:34;;;;;;;17.00;13.18;;;;;;;9.09;80.42;96855.36;1723515;82;25831;-90
2021/09/19 04:53:01;;;;;;;19.02;14.87;;;;;;;8.98;80.42;96856.04;1705824;82;26520;-84
2021/09/19 04:55:27;;;;;;;16.60;14.47;;;;;;;8.93;80.59;96863.43;1725721;82;25332;-82
2021/09/19 04:57:54;;;;;;;17.40;13.72;;;;;;;8.87;80.61;96869.66;1715015;82;27382;-84
2021/09/19 05:00:20;;;;;;;16.82;13.60;;;;;;;8.80;80.54;96878.80;1709112;83;25675;-93
2021/09/19 05:02:47;;;;;;;16.50;13.95;;;;;;;8.72;80.60;96883.87;1728206;82;25922;-93
2021/09/19 05:05:14;;;;;;;14.43;12.93;;;;;;;8.73;80.47;96885.53;1701309;83;25972;-82
2021/09/19 05:07:40;;;;;;;15.30;13.53;;;;;;;8.72;80.41;96887.09;1725376;82;25821;-85
2021/09/19 05:10:08;;;;;;;14.98;12.53;;;;;;;8.65;80.36;96889.30;1706109;82;28070;-87
2021/09/19 05:12:34;;;;;;;15.13;13.50;;;;;;;8.59;80.36;96896.02;1708916;83;25749;-83
2021/09/19 05:15:01;;;;;;;16.02;12.98;;;;;;;8.58;80.42;96895.72;1725680;82;25277;-92
2021/09/19 05:17:28;;;;;;;19.10;14.58;;;;;;;8.60;80.47;96903.89;1716776;82;25977;-83
2021/09/19 05:19:54;;;;;;;16.05;14.35;;;;;;;8.63;80.49;96902.65;1680776;83;25929;-88
2021/09/19 05:22:21;;;;;;;16.23;14.05;;;;;;;8.64;80.50;96899.75;1726039;82;27609;-88
2021/09/19 05:24:47;;;;;;;17.45;14.23;;;;;;;8.66;80.28;96895.51;1734446;82;25875;-86
2021/09/19 05:27:14;;;;;;;17.15;15.32;;;;;;;8.66;80.05;96896.85;1706380;83;25841;-93
2021/09/19 05:29:41;;;;;;;19.25;15.63;;;;;;;8.63;79.90;96898.61;1730551;82;26899;-90
2021/09/19 05:32:07;;;;;;;15.68;13.93;;;;;;;8.62;79.79;96914.45;1737542;81;25319;-92
2021/09/19 05:34:35;;;;;;;18.55;15.98;;;;;;;8.61;79.80;96914.13;1739955;82;27353;-92
2021/09/19 05:37:02;;;;;;;16.67;14.83;;;;;;;8.56;79.67;96920.68;1716937;81;25743;-89
2021/09/19 05:39:29;;;;;;;20.75;15.50;;;;;;;8.51;79.65;96925.34;1726206;81;26371;-92
2021/09/19 05:41:56;;;;;;;19.25;15.93;;;;;;;8.52;79.67;96928.86;1726446;82;26583;-93
2021/09/19 05:44:22;;;;;;;17.23;14.68;;;;;;;8.54;79.67;96926.78;1740303;82;25300;-89
2021/09/19 05:46:49;;;;;;;17.15;15.25;;;;;;;8.56;79.68;96920.68;1727028;82;27514;-90
2021/09/19 05:49:15;;;;;;;18.02;14.35;;;;;;;8.60;79.62;96917.86;1733667;82;26099;-86
2021/09/19 05:51:42;;;;;;;17.57;15.03;;;;;;;8.60;79.46;96917.86;1740066;82;25267;-91
2021/09/19 05:54:08;;;;;;;20.70;14.43;;;;;;;8.59;79.46;96923.76;1718022;83;25980;-89
2021/09/19 05:56:35;;;;;;;20.23;15.00;;;;;;;8.61;79.47;96920.86;1725478;82;25678;-88
2021/09/19 05:59:02;;;;;;;19.57;14.18;;;;;;;8.60;79.38;96919.20;1704800;83;28184;-93
2021/09/19 06:01:28;;;;;;;19.82;15.05;;;;;;;8.59;79.38;96926.96;1726567;82;26305;-87
2021/09/19 06:03:55;;;;;;;17.42;14.68;;;;;;;8.58;79.50;96932.03;1724953;82;25720;-87
2021/09/19 06:06:22;;;;;;;18.55;14.47;;;;;;;8.57;79.54;96929.86;1725273;81;25980;-89
2021/09/19 06:08:48;;;;;;;18.87;14.00;;;;;;;8.58;79.54;96932.03;1725241;82;25380;-86
2021/09/19 06:11:15;;;;;;;20.15;15.15;;;;;;;8.60;79.75;96929.97;1722923;81;27365;-85
2021/09/19 06:13:42;;;;;;;17.73;14.07;;;;;;;8.64;79.77;96939.28;1720124;82;25787;-92
2021/09/19 06:16:08;;;;;;;19.73;14.78;;;;;;;8.64;79.76;96941.97;1727084;82;25674;-94
2021/09/19 06:18:35;;;;;;;22.13;14.20;;;;;;;8.67;79.73;96946.94;1740182;82;25967;-84
2021/09/19 06:21:03;;;;;;;20.10;14.93;;;;;;;8.61;79.80;96942.38;1740303;82;25726;-87
2021/09/19 06:23:30;;;;;;;19.95;14.70;;;;;;;8.60;79.70;96946.94;1740024;81;27478;-85
2021/09/19 06:25:58;;;;;;;18.25;14.40;;;;;;;8.57;79.56;96948.69;1733937;82;25796;-87
2021/09/19 06:28:25;;;;;;;19.45;15.48;;;;;;;8.55;79.54;96940.55;1705144;83;25790;-91
2021/09/19 06:30:52;;;;;;;20.75;15.75;;;;;;;8.54;79.67;96938.89;1737880;81;26631;-89
2021/09/19 06:33:18;;;;;;;24.40;16.90;;;;;;;8.53;79.77;96945.30;1720231;82;25866;-85
2021/09/19 06:35:45;;;;;;;20.60;15.38;;;;;;;8.55;79.82;96951.31;1709883;83;27509;-86
2021/09/19 06:38:11;;;;;;;20.23;15.95;;;;;;;8.57;79.86;96950.59;1715165;82;25825;-84
2021/09/19 06:40:38;;;;;;;20.52;15.83;;;;;;;8.55;79.77;96948.62;1737274;81;25280;-88
2021/09/19 06:43:05;;;;;;;22.20;17.45;;;;;;;8.54;79.71;96955.03;1739560;81;26597;-89
2021/09/19 06:45:31;;;;;;;23.02;17.10;;;;;;;8.55;79.81;96955.34;1739667;81;25725;-94
2021/09/19 06:47:58;;;;;;;21.95;15.78;;;;;;;8.52;79.94;96953.89;1739603;81;27428;-86
2021/09/19 06:50:25;;;;;;;24.30;17.37;;;;;;;8.52;79.91;96954.41;1739547;81;25267;-89
2021/09/19 06:52:51;;;;;;;24.25;17.55;;;;;;;8.50;79.86;96959.99;1739699;81;26271;-87
2021/09/19 06:55:18;;;;;;;23.87;18.12;;;;;;;8.46;79.92;96956.05;1739735;81;26091;-92
2021/09/19 06:57:46;;;;;;;23.30;18.95;;;;;;;8.48;79.98;96958.55;1739633;81;26685;-94
2021/09/19 07:00:14;;;;;;;21.87;17.12;;;;;;;8.52;80.12;96943.65;1739674;81;27231;-88
2021/09/19 07:02:40;;;;;;;24.85;18.80;;;;;;;8.54;80.10;96955.03;1739672;81;25726;-86
2021/09/19 07:05:08;;;;;;;24.82;19.15;;;;;;;8.53;80.14;96954.20;1739627;81;25721;-85
2021/09/19 07:07:35;;;;;;;23.07;17.95;;;;;;;8.58;80.21;96956.25;1738691;81;25969;-83
2021/09/19 07:10:03;;;;;;;27.50;20.10;;;;;;;8.58;80.13;96958.94;1738367;81;25718;-88
2021/09/19 07:12:30;;;;;;;25.97;19.55;;;;;;;8.59;80.11;96963.28;1739583;81;27428;-89
2021/09/19 07:14:56;;;;;;;26.35;20.65;;;;;;;8.60;80.07;96963.59;1739540;81;25777;-88
2021/09/19 07:17:23;;;;;;;25.15;20.48;;;;;;;8.59;80.12;96959.25;1739747;81;26355;-84
2021/09/19 07:19:49;;;;;;;25.15;19.10;;;;;;;8.58;80.12;96954.91;1739698;81;26040;-89
2021/09/19 07:22:16;;;;;;;26.77;19.70;;;;;;;8.58;80.11;96960.28;1739778;81;25786;-95
2021/09/19 07:24:43;;;;;;;26.50;20.37;;;;;;;8.57;80.18;96958.11;1739712;81;27590;-87
2021/09/19 07:27:09;;;;;;;27.02;20.68;;;;;;;8.57;80.18;96955.42;1740256;81;26106;-92
2021/09/19 07:29:36;;;;;;;25.30;19.92;;;;;;;8.57;80.23;96954.63;1740331;81;25777;-87
2021/09/19 07:32:07;;;;;;;25.75;19.70;;;;;;;8.51;80.40;96954.09;1740335;81;26044;-86
2021/09/19 07:34:34;;;;;;;25.55;19.92;;;;;;;8.51;80.52;96956.78;1740302;82;25964;-86
2021/09/19 07:37:05;;;;;;;26.02;18.87;;;;;;;8.52;80.65;96959.27;1739882;81;27445;-93
2021/09/19 07:39:32;;;;;;;25.60;19.15;;;;;;;8.54;80.59;96951.83;1732905;81;25897;-94
2021/09/19 07:41:59;;;;;;;24.92;18.87;;;;;;;8.53;80.53;96951.52;1716244;81;25738;-86
2021/09/19 07:44:26;;;;;;;24.43;19.00;;;;;;;8.50;80.52;96955.95;1739171;81;26744;-84
2021/09/19 07:46:53;;;;;;;25.97;18.48;;;;;;;8.50;80.57;96961.86;1735216;82;25885;-88
2021/09/19 07:49:21;;;;;;;21.55;17.07;;;;;;;8.51;80.65;96963.52;1738874;81;28339;-88
2021/09/19 07:51:48;;;;;;;23.55;16.35;;;;;;;8.46;80.62;96963.30;1714901;83;25901;-93
2021/09/19 07:54:15;;;;;;;24.07;17.12;;;;;;;8.46;80.67;96963.30;1709522;83;25661;-84
2021/09/19 07:56:42;;;;;;;22.75;18.20;;;;;;;8.43;80.83;96963.73;1711560;83;26762;-88
2021/09/19 07:59:09;;;;;;;21.25;16.65;;;;;;;8.42;80.94;96972.33;1740159;82;25785;-85
2021/09/19 08:01:35;;;;;;;21.73;16.57;;;;;;;8.45;81.01;96973.78;1727006;82;28198;-85
2021/09/19 08:04:03;;;;;;;18.92;14.70;;;;;;;8.49;80.98;96968.27;1740172;82;25734;-91
2021/09/19 08:06:29;;;;;;;22.45;16.30;;;;;;;8.53;81.03;96970.86;1740394;82;25729;-87
2021/09/19 08:08:56;;;;;;;21.90;15.28;;;;;;;8.49;80.91;96973.65;1740289;82;26035;-86
2021/09/19 08:11:22;;;;;;;18.30;15.75;;;;;;;8.45;81.05;96978.61;1740231;82;25778;-85
2021/09/19 08:13:51;;;;;;;18.73;14.98;;;;;;;8.47;81.18;96975.72;1740331;82;27358;-93
2021/09/19 08:16:17;;;;;;;16.30;13.15;;;;;;;8.49;81.19;96977.68;1723053;83;25816;-86
2021/09/19 08:18:44;;;;;;;16.70;12.07;;;;;;;8.51;81.08;96979.66;1740386;82;25725;-88
2021/09/19 08:21:11;;;;;;;14.75;11.63;;;;;;;8.51;81.00;96978.30;1725583;81;25976;-85
2021/09/19 08:23:37;;;;;;;15.08;10.58;;;;;;;8.51;81.04;96976.96;1725855;82;25762;-89
2021/09/19 08:26:04;;;;;;;13.03;10.82;;;;;;;8.53;81.23;96976.24;1739187;82;27193;-84
2021/09/19 08:28:30;;;;;;;15.32;11.63;;;;;;;8.52;81.14;96975.92;1739271;82;25884;-86
2021/09/19 08:30:57;;;;;;;17.00;11.65;;;;;;;8.53;81.19;96980.28;1739511;81;25773;-87
2021/09/19 08:33:27;;;;;;;12.53;10.82;;;;;;;8.56;81.31;96977.17;1718585;81;26754;-87
2021/09/19 08:35:53;;;;;;;12.73;10.23;;;;;;;8.63;81.35;96982.02;1712882;83;25781;-88
2021/09/19 08:38:19;;;;;;;12.80;9.65;;;;;;;8.70;81.28;96978.78;1710920;82;27410;-87
2021/09/19 08:40:46;;;;;;;15.32;11.43;;;;;;;8.70;81.10;96985.52;1695669;83;25814;-92
2021/09/19 08:43:15;;;;;;;21.48;11.60;;;;;;;8.74;81.09;96990.80;1731045;82;26377;-84
2021/09/19 08:45:46;;;;;;;15.98;10.48;;;;;;;8.79;80.89;96988.83;1719169;82;26788;-87
2021/09/19 08:48:14;;;;;;;16.85;11.18;;;;;;;8.74;80.90;96989.97;1735296;81;25773;-86
2021/09/19 08:50:42;;;;;;;11.50;8.48;;;;;;;8.73;80.89;96986.45;1716669;82;27648;-85
2021/09/19 08:53:09;;;;;;;12.05;8.78;;;;;;;8.79;80.77;96993.70;1736952;81;25903;-83
2021/09/19 08:55:35;;;;;;;12.45;9.38;;;;;;;8.79;80.59;96987.48;1724873;82;25744;-84
2021/09/19 08:58:02;;;;;;;11.40;8.55;;;;;;;8.82;80.53;96992.42;1725035;81;26043;-94
2021/09/19 09:00:40;;;;;;;10.68;8.35;;;;;;;8.90;80.67;96994.39;1726868;83;25705;-91
2021/09/19 09:03:14;;;;;;;12.45;9.33;;;;;;;8.96;80.66;96990.84;1726658;81;28691;-87
2021/09/19 09:05:41;;;;;;;18.77;10.15;;;;;;;8.91;80.43;96998.74;1716116;81;25797;-87
2021/09/19 09:08:10;;;;;;;17.55;9.20;;;;;;;8.89;80.47;97002.16;1721911;82;25872;-87
2021/09/19 09:10:43;;;;;;;12.35;9.30;;;;;;;8.89;80.68;96996.77;1724950;82;26035;-92
2021/09/19 09:13:16;;;;;;;9.98;7.72;;;;;;;8.95;80.58;97000.47;1719933;82;25774;-84
2021/09/19 09:15:50;;;;;;;10.50;7.65;;;;;;;8.92;80.36;97000.40;1714174;81;27470;-85
2021/09/19 09:18:52;;;;;;;11.63;8.13;;;;;;;8.92;80.41;96999.05;1725405;81;25748;-87
2021/09/19 09:21:25;;;;;;;10.35;7.70;;;;;;;8.96;80.41;96994.88;1726867;82;25860;-89
2021/09/19 09:23:55;;;;;;;8.28;7.28;;;;;;;9.00;80.36;96986.70;1726817;83;26006;-91
2021/09/19 09:26:38;;;;;;;9.05;7.47;;;;;;;9.03;80.38;96991.67;1726944;81;25799;-89
2021/09/19 09:29:10;;;;;;;9.25;6.70;;;;;;;9.07;80.15;96989.36;1713317;83;26924;-86
2021/09/19 09:31:52;;;;;;;9.80;6.95;;;;;;;9.10;79.85;96990.29;1713572;83;25836;-86
2021/09/19 09:34:25;;;;;;;9.50;7.13;;;;;;;9.14;79.82;96992.88;1740082;81;26426;-87
2021/09/19 09:37:05;;;;;;;9.95;7.45;;;;;;;9.15;79.75;96993.19;1727315;82;25997;-84
2021/09/19 09:39:36;;;;;;;9.03;7.25;;;;;;;9.20;79.72;96990.66;1739836;81;25271;-85
2021/09/19 09:42:21;;;;;;;10.38;8.25;;;;;;;9.23;79.51;96994.80;1725777;82;27607;-84
2021/09/19 09:44:53;;;;;;;10.13;7.58;;;;;;;9.27;79.44;96990.66;1698600;82;25745;-93
2021/09/19 09:47:29;;;;;;;10.08;7.55;;;;;;;9.31;79.35;96992.69;1717470;82;32261;-94
2021/09/19 09:50:00;;;;;;;10.72;7.70;;;;;;;9.36;79.39;96998.28;1711331;81;26019;-92
2021/09/19 09:52:32;;;;;;;9.15;7.58;;;;;;;9.39;79.26;96991.64;1723803;82;25829;-90
2021/09/19 09:55:07;;;;;;;11.05;8.93;;;;;;;9.42;79.08;96993.09;1711555;82;27450;-92
2021/09/19 09:57:43;;;;;;;10.20;7.35;;;;;;;9.44;79.37;97001.76;1707288;82;25995;-86
2021/09/19 10:00:19;;;;;;;10.30;7.53;;;;;;;9.44;79.52;96996.38;1697846;82;25719;-85
2021/09/19 10:02:49;;;;;;;9.90;7.17;;;;;;;9.48;79.51;96998.44;1697931;83;25990;-84
2021/09/19 10:05:19;;;;;;;9.55;7.33;;;;;;;9.51;79.29;97003.41;1717701;82;26024;-93
2021/09/19 10:07:47;;;;;;;10.53;8.80;;;;;;;9.52;79.29;96998.84;1689262;83;27217;-84
2021/09/19 10:10:18;;;;;;;12.58;7.25;;;;;;;9.51;79.20;97007.44;1719264;82;25824;-92
2021/09/19 10:12:47;;;;;;;9.85;7.60;;;;;;;9.48;79.09;97001.12;1699414;82;25737;-88
2021/09/19 10:15:15;;;;;;;9.83;7.92;;;;;;;9.46;79.03;97009.11;1710104;82;26221;-94
2021/09/19 10:17:43;;;;;;;10.18;7.30;;;;;;;9.41;79.26;97011.13;1710104;82;25791;-94
2021/09/19 10:20:17;;;;;;;16.40;7.40;;;;;;;9.40;79.13;97008.12;1710391;82;27383;-92
2021/09/19 10:23:07;;;;;;;14.15;7.42;;;;;;;9.38;79.26;97008.84;1743921;81;25807;-90
2021/09/19 10:25:42;;;;;;;8.70;6.60;;;;;;;9.42;79.15;97013.30;1709039;83;25731;-90
2021/09/19 10:28:37;;;;;;;9.43;6.58;;;;;;;9.45;79.30;97012.33;1737507;81;26757;-87
2021/09/19 10:31:20;;;;;;;9.75;6.67;;;;;;;9.46;79.06;97017.20;1723565;82;25754;-91
2021/09/19 10:34:06;;;;;;;12.35;5.87;;;;;;;9.50;79.04;97019.26;1712833;82;27443;-88
2021/09/19 10:36:53;;;;;;;9.03;5.67;;;;;;;9.59;78.92;97016.62;1723845;81;25968;-88
2021/09/19 10:39:44;;;;;;;7.70;5.62;;;;;;;9.67;78.54;97007.45;1725866;82;26664;-94
2021/09/19 10:42:30;;;;;;;6.95;5.67;;;;;;;9.72;78.27;97018.42;1697620;83;26107;-85
2021/09/19 10:45:02;;;;;;;7.30;6.17;;;;;;;9.74;78.10;97011.78;1724441;82;25818;-90
2021/09/19 10:47:37;;;;;;;8.25;6.67;;;;;;;9.77;77.99;97012.41;1698792;83;27398;-88
2021/09/19 10:50:21;;;;;;;7.75;6.45;;;;;;;9.78;77.95;97006.77;1735480;81;25857;-92
2021/09/19 10:52:55;;;;;;;7.50;6.37;;;;;;;9.79;77.91;97021.07;1727237;82;26327;-85
2021/09/19 10:55:33;;;;;;;10.10;7.47;;;;;;;9.80;78.00;97018.69;1736107;81;26679;-88
2021/09/19 10:58:07;;;;;;;15.72;8.80;;;;;;;9.79;78.07;97029.16;1708365;83;25835;-89
2021/09/19 11:00:36;;;;;;;12.47;8.75;;;;;;;9.80;78.01;97025.42;1683767;83;27395;-90
2021/09/19 11:03:18;;;;;;;12.73;9.05;;;;;;;9.80;78.02;97018.16;1715874;81;25316;-88
2021/09/19 11:05:49;;;;;;;11.83;9.20;;;;;;;9.83;77.93;97025.83;1718293;81;26396;-80
2021/09/19 11:08:24;;;;;;;11.73;8.40;;;;;;;9.84;77.93;97028.00;1721420;81;26844;-84
2021/09/19 11:10:56;;;;;;;10.70;8.85;;;;;;;9.84;77.91;97024.78;1697255;82;25635;-85
2021/09/19 11:13:30;;;;;;;12.80;8.80;;;;;;;9.83;77.89;97034.44;1704834;81;28249;-85
2021/09/19 11:16:08;;;;;;;14.03;9.58;;;;;;;9.86;78.07;97034.02;1697714;83;25768;-85
2021/09/19 11:18:48;;;;;;;14.50;9.10;;;;;;;9.85;78.19;97029.66;1697668;82;25963;-87
2021/09/19 11:21:22;;;;;;;10.95;8.50;;;;;;;9.83;78.15;97031.22;1692781;83;25837;-84
2021/09/19 11:23:52;;;;;;;13.05;8.90;;;;;;;9.84;78.13;97026.66;1723840;82;25796;-86
2021/09/19 11:26:23;;;;;;;13.13;9.23;;;;;;;9.87;78.19;97034.32;1697430;82;27347;-87
2021/09/19 11:28:57;;;;;;;12.10;9.55;;;;;;;9.85;78.18;97034.53;1710551;81;25830;-85
2021/09/19 11:31:24;;;;;;;11.00;9.55;;;;;;;9.87;78.03;97038.36;1711044;81;25807;-86
2021/09/19 11:33:51;;;;;;;12.15;9.13;;;;;;;9.87;77.99;97035.15;1690208;82;26866;-88
2021/09/19 11:36:21;;;;;;;11.95;9.93;;;;;;;9.90;78.05;97036.59;1715898;82;25328;-86